Metar z pełnej godziny Komunikat METAR ze strony awiacja.imgw.pl Metar G00 EPZG METAR EPZG 291800Z 36003KT 330V030 CAVOK 16/04 Q1025 =